createdAt,value
2018-01-24T00:00:34.061Z,13.80
2018-01-24T00:03:02.481Z,14.10
2018-01-24T00:05:30.924Z,13.27
2018-01-24T00:07:59.447Z,13.30
2018-01-24T00:10:27.904Z,14.20
2018-01-24T00:12:56.304Z,13.67
2018-01-24T00:15:24.835Z,13.37
2018-01-24T00:17:53.266Z,14.27
2018-01-24T00:20:21.709Z,15.07
2018-01-24T00:22:50.187Z,14.77
2018-01-24T00:25:18.661Z,15.50
2018-01-24T00:27:47.072Z,15.60
2018-01-24T00:30:15.513Z,17.03
2018-01-24T00:32:44.045Z,15.43
2018-01-24T00:35:12.556Z,16.97
2018-01-24T00:37:41.013Z,17.67
2018-01-24T00:40:09.481Z,17.90
2018-01-24T00:42:37.925Z,17.57
2018-01-24T00:45:06.365Z,16.73
2018-01-24T00:47:34.879Z,16.80
2018-01-24T00:50:03.289Z,17.03
2018-01-24T00:52:31.725Z,15.63
2018-01-24T00:55:00.136Z,15.50
2018-01-24T00:57:28.576Z,16.07
2018-01-24T00:59:57.043Z,15.60
2018-01-24T01:02:25.541Z,15.03
2018-01-24T01:04:53.987Z,15.07
2018-01-24T01:07:22.432Z,15.43
2018-01-24T01:09:50.879Z,16.00
2018-01-24T01:12:19.338Z,16.87
2018-01-24T01:14:47.784Z,16.70
2018-01-24T01:17:16.256Z,17.37
2018-01-24T01:19:44.723Z,16.80
2018-01-24T01:22:13.152Z,17.17
2018-01-24T01:24:41.601Z,16.87
2018-01-24T01:27:10.004Z,15.67
2018-01-24T01:29:38.512Z,16.07
2018-01-24T01:32:06.966Z,15.50
2018-01-24T01:34:35.393Z,15.40
2018-01-24T01:37:03.873Z,15.43
2018-01-24T01:39:32.349Z,15.63
2018-01-24T01:42:00.769Z,14.47
2018-01-24T01:44:29.218Z,15.27
2018-01-24T01:46:57.745Z,15.33
2018-01-24T01:49:26.245Z,15.20
2018-01-24T01:51:54.725Z,14.80
2018-01-24T01:54:23.261Z,14.23
2018-01-24T01:56:51.705Z,14.27
2018-01-24T01:59:20.175Z,14.60
2018-01-24T02:01:48.673Z,15.03
2018-01-24T02:04:17.089Z,14.63
2018-01-24T02:06:45.598Z,14.30
2018-01-24T02:09:14.054Z,15.20
2018-01-24T02:11:42.484Z,15.10
2018-01-24T02:14:10.908Z,14.57
2018-01-24T02:16:39.471Z,13.93
2018-01-24T02:19:07.893Z,14.13
2018-01-24T02:21:36.405Z,14.43
2018-01-24T02:24:04.946Z,14.67
2018-01-24T02:26:33.392Z,14.43
2018-01-24T02:29:01.811Z,14.27
2018-01-24T02:31:30.244Z,14.00
2018-01-24T02:33:58.657Z,14.00
2018-01-24T02:36:27.167Z,14.63
2018-01-24T02:39:07.354Z,13.23
2018-01-24T02:41:35.777Z,13.53
2018-01-24T02:44:04.228Z,13.77
2018-01-24T02:46:32.714Z,12.97
2018-01-24T02:49:01.189Z,14.67
2018-01-24T02:51:29.751Z,14.07
2018-01-24T02:53:58.230Z,12.77
2018-01-24T02:56:26.649Z,13.60
2018-01-24T02:58:55.097Z,13.80
2018-01-24T03:01:23.621Z,13.57
2018-01-24T03:03:52.066Z,13.03
2018-01-24T03:06:20.468Z,12.67
2018-01-24T03:08:48.925Z,13.03
2018-01-24T03:11:17.390Z,13.50
2018-01-24T03:13:45.865Z,12.80
2018-01-24T03:16:14.321Z,12.67
2018-01-24T03:18:42.851Z,13.17
2018-01-24T03:21:11.286Z,13.47
2018-01-24T03:23:39.696Z,14.13
2018-01-24T03:26:08.169Z,13.53
2018-01-24T03:28:36.587Z,14.53
2018-01-24T03:31:05.110Z,14.40
2018-01-24T03:33:33.572Z,14.00
2018-01-24T03:36:02.053Z,13.63
2018-01-24T03:38:30.519Z,15.20
2018-01-24T03:40:58.988Z,15.27
2018-01-24T03:43:27.439Z,14.43
2018-01-24T03:45:55.844Z,14.70
2018-01-24T03:48:24.261Z,14.60
2018-01-24T03:50:52.733Z,14.37
2018-01-24T03:53:21.237Z,14.90
2018-01-24T03:55:49.717Z,14.37
2018-01-24T03:58:18.151Z,14.57
2018-01-24T04:00:46.665Z,14.23
2018-01-24T04:03:15.083Z,14.83
2018-01-24T04:05:43.640Z,15.60
2018-01-24T04:08:12.051Z,15.20
2018-01-24T04:10:40.477Z,14.77
2018-01-24T04:13:08.975Z,14.90
2018-01-24T04:15:37.410Z,14.23
2018-01-24T04:18:05.822Z,15.93
2018-01-24T04:20:34.346Z,15.80
2018-01-24T04:23:02.766Z,16.10
2018-01-24T04:25:31.268Z,16.03
2018-01-24T04:27:59.720Z,16.30
2018-01-24T04:30:28.175Z,15.87
2018-01-24T04:32:56.645Z,15.07
2018-01-24T04:35:25.090Z,14.73
2018-01-24T04:37:53.488Z,15.33
2018-01-24T04:40:22.029Z,15.17
2018-01-24T04:42:50.656Z,16.40
2018-01-24T04:45:19.089Z,15.80
2018-01-24T04:47:47.593Z,15.27
2018-01-24T04:50:16.069Z,15.43
2018-01-24T04:52:44.569Z,16.47
2018-01-24T04:55:13.015Z,16.90
2018-01-24T04:57:41.549Z,16.30
2018-01-24T05:00:09.973Z,15.43
2018-01-24T05:02:38.485Z,15.60
2018-01-24T05:05:06.977Z,15.57
2018-01-24T05:07:35.515Z,17.63
2018-01-24T05:10:03.956Z,19.53
2018-01-24T05:12:32.436Z,26.60
2018-01-24T05:15:00.864Z,20.40
2018-01-24T05:17:29.293Z,19.23
2018-01-24T05:19:57.813Z,19.77
2018-01-24T05:22:26.289Z,19.60
2018-01-24T05:24:54.790Z,17.13
2018-01-24T05:27:23.254Z,16.67
2018-01-24T05:29:51.726Z,18.23
2018-01-24T05:32:20.227Z,29.87
2018-01-24T05:34:48.676Z,25.30
2018-01-24T05:37:17.133Z,24.27
2018-01-24T05:39:45.589Z,18.30
2018-01-24T05:42:14.024Z,18.80
2018-01-24T05:44:42.425Z,19.13
2018-01-24T05:47:10.935Z,17.63
2018-01-24T05:49:39.401Z,20.30
2018-01-24T05:52:07.932Z,22.17
2018-01-24T05:54:36.402Z,31.70
2018-01-24T05:57:04.881Z,33.40
2018-01-24T05:59:33.287Z,47.17
2018-01-24T06:02:01.711Z,29.10
2018-01-24T06:04:30.116Z,22.83
2018-01-24T06:06:58.590Z,19.87
2018-01-24T06:09:26.996Z,18.63
2018-01-24T06:11:55.411Z,20.03
2018-01-24T06:14:23.867Z,17.93
2018-01-24T06:16:52.285Z,23.00
2018-01-24T06:19:20.755Z,27.47
2018-01-24T06:21:49.197Z,24.87
2018-01-24T06:24:17.803Z,28.07
2018-01-24T06:26:46.273Z,29.87
2018-01-24T06:29:14.690Z,18.43
2018-01-24T06:31:43.192Z,21.20
2018-01-24T06:34:11.613Z,21.93
2018-01-24T06:36:40.133Z,19.63
2018-01-24T06:39:08.593Z,19.67
2018-01-24T06:41:37.061Z,17.50
2018-01-24T06:44:05.464Z,17.10
2018-01-24T06:46:33.983Z,15.67
2018-01-24T06:49:02.396Z,15.80
2018-01-24T06:51:30.942Z,44.47
2018-01-24T06:53:59.390Z,38.77
2018-01-24T06:56:27.920Z,22.60
2018-01-24T06:58:56.449Z,19.07
2018-01-24T07:01:24.857Z,17.07
2018-01-24T07:03:53.337Z,15.03
2018-01-24T07:06:21.845Z,14.17
2018-01-24T07:08:50.254Z,17.70
2018-01-24T07:11:18.665Z,19.73
2018-01-24T07:13:58.793Z,19.23
2018-01-24T07:16:27.249Z,17.33
2018-01-24T07:18:55.751Z,17.57
2018-01-24T07:21:24.234Z,11.50
2018-01-24T07:23:52.673Z,13.50
2018-01-24T07:26:21.097Z,11.10
2018-01-24T07:28:49.544Z,11.40
2018-01-24T07:31:17.981Z,12.30
2018-01-24T07:33:46.414Z,10.37
2018-01-24T07:36:14.813Z,9.90
2018-01-24T07:38:43.321Z,10.60
2018-01-24T07:41:11.953Z,9.47
2018-01-24T07:43:40.381Z,9.77
2018-01-24T07:46:08.784Z,12.83
2018-01-24T07:48:37.249Z,9.63
2018-01-24T07:51:05.667Z,9.13
2018-01-24T07:53:34.140Z,11.13
2018-01-24T07:56:02.548Z,10.37
2018-01-24T07:58:31.106Z,10.37
2018-01-24T08:00:59.613Z,10.77
2018-01-24T08:03:28.065Z,10.50
2018-01-24T08:05:56.509Z,11.33
2018-01-24T08:08:25.017Z,11.33
2018-01-24T08:10:53.499Z,12.70
2018-01-24T08:13:21.975Z,13.30
2018-01-24T08:15:50.481Z,13.67
2018-01-24T08:18:19.018Z,15.93
2018-01-24T08:20:47.457Z,20.23
2018-01-24T08:23:15.900Z,19.97
2018-01-24T08:25:44.344Z,20.93
2018-01-24T08:28:12.842Z,16.33
2018-01-24T08:30:41.353Z,14.77
2018-01-24T08:33:09.825Z,12.90
2018-01-24T08:35:38.258Z,11.37
2018-01-24T08:38:06.913Z,11.40
2018-01-24T08:40:35.340Z,12.70
2018-01-24T08:43:03.797Z,12.20
2018-01-24T08:45:33.106Z,12.70
2018-01-24T08:48:01.663Z,14.17
2018-01-24T08:50:30.171Z,14.30
2018-01-24T08:52:58.603Z,12.93
2018-01-24T08:55:27.054Z,13.10
2018-01-24T08:57:56.204Z,13.07
2018-01-24T09:00:24.729Z,12.03
2018-01-24T09:02:53.154Z,14.00
2018-01-24T09:05:21.672Z,13.10
2018-01-24T09:07:50.181Z,13.40
2018-01-24T09:10:18.606Z,15.37
2018-01-24T09:12:47.146Z,12.70
2018-01-24T09:15:15.637Z,13.17
2018-01-24T09:17:44.113Z,23.80
2018-01-24T09:20:12.594Z,16.27
2018-01-24T09:22:41.163Z,11.77
2018-01-24T09:25:09.750Z,11.13
2018-01-24T09:27:38.236Z,11.80
2018-01-24T09:30:06.764Z,11.53
2018-01-24T09:32:35.253Z,13.27
2018-01-24T09:35:03.690Z,12.07
2018-01-24T09:37:32.208Z,10.63
2018-01-24T09:40:00.673Z,10.83
2018-01-24T09:42:29.149Z,12.70
2018-01-24T09:44:57.663Z,12.83
2018-01-24T09:47:26.177Z,13.80
2018-01-24T09:49:54.592Z,12.77
2018-01-24T09:52:23.059Z,15.53
2018-01-24T09:54:51.529Z,14.67
2018-01-24T09:57:20.028Z,13.40
2018-01-24T09:59:48.454Z,12.33
2018-01-24T10:02:16.899Z,12.40
2018-01-24T10:04:45.397Z,11.03
2018-01-24T10:07:13.801Z,14.53
2018-01-24T10:09:42.236Z,11.90
2018-01-24T10:12:10.673Z,11.20
2018-01-24T10:14:39.135Z,11.57
2018-01-24T10:17:07.595Z,11.07
2018-01-24T10:19:36.047Z,10.20
2018-01-24T10:22:04.462Z,10.73
2018-01-24T10:24:33.005Z,10.37
2018-01-24T10:27:01.537Z,8.97
2018-01-24T10:29:29.952Z,8.87
2018-01-24T10:31:58.450Z,10.40
2018-01-24T10:34:26.932Z,11.07
2018-01-24T10:36:55.376Z,10.60
2018-01-24T10:39:23.821Z,10.97
2018-01-24T10:41:52.279Z,10.30
2018-01-24T10:44:20.741Z,10.80
2018-01-24T10:46:49.157Z,10.20
2018-01-24T10:49:17.608Z,9.57
2018-01-24T10:51:46.589Z,9.57
2018-01-24T10:54:15.181Z,9.73
2018-01-24T10:56:43.680Z,9.80
2018-01-24T10:59:12.167Z,10.13
2018-01-24T11:01:40.573Z,10.00
2018-01-24T11:04:09.110Z,9.63
2018-01-24T11:06:37.562Z,9.37
2018-01-24T11:09:05.982Z,9.47
2018-01-24T11:11:34.525Z,9.13
2018-01-24T11:14:02.924Z,10.03
2018-01-24T11:16:31.374Z,10.23
2018-01-24T11:18:59.871Z,8.77
2018-01-24T11:21:29.649Z,8.73
2018-01-24T11:23:58.397Z,9.07
2018-01-24T11:26:26.909Z,9.77
2018-01-24T11:28:55.443Z,9.07
2018-01-24T11:31:23.874Z,9.50
2018-01-24T11:33:52.316Z,8.97
2018-01-24T11:36:20.728Z,10.23
2018-01-24T11:38:49.161Z,8.30
2018-01-24T11:41:17.558Z,8.73
2018-01-24T11:43:46.053Z,8.20
2018-01-24T11:46:14.504Z,8.23
2018-01-24T11:48:42.943Z,9.20
2018-01-24T11:51:11.381Z,7.30
2018-01-24T11:53:39.839Z,8.10
2018-01-24T11:56:08.233Z,8.30
2018-01-24T11:58:36.674Z,7.63
2018-01-24T12:01:05.146Z,8.53
2018-01-24T12:03:33.530Z,8.57
2018-01-24T12:06:01.938Z,30.53
2018-01-24T12:08:30.362Z,10.33
2018-01-24T12:10:58.788Z,8.83
2018-01-24T12:13:27.246Z,38.37
2018-01-24T12:15:55.697Z,10.73
2018-01-24T12:18:24.121Z,9.63
2018-01-24T12:20:52.545Z,9.93
2018-01-24T12:23:21.076Z,8.87
2018-01-24T12:25:49.606Z,8.30
2018-01-24T12:28:18.044Z,9.53
2018-01-24T12:30:46.478Z,8.30
2018-01-24T12:33:16.976Z,9.33
2018-01-24T12:35:46.446Z,9.47
2018-01-24T12:38:15.868Z,9.83
2018-01-24T12:40:45.968Z,8.93
2018-01-24T12:43:15.323Z,9.47
2018-01-24T12:45:44.543Z,9.30
2018-01-24T12:48:16.714Z,9.27
2018-01-24T12:50:45.527Z,9.33
2018-01-24T12:53:14.381Z,10.03
2018-01-24T12:55:43.076Z,9.37
2018-01-24T12:58:11.857Z,10.80
2018-01-24T13:00:40.781Z,11.30
2018-01-24T13:03:09.803Z,12.73
2018-01-24T13:05:38.553Z,10.73
2018-01-24T13:08:07.349Z,10.03
2018-01-24T13:10:35.812Z,10.73
2018-01-24T13:13:04.216Z,10.60
2018-01-24T13:15:32.620Z,11.03
2018-01-24T13:18:01.046Z,9.67
2018-01-24T13:20:29.465Z,11.27
2018-01-24T13:22:57.901Z,9.70
2018-01-24T13:25:26.305Z,9.83
2018-01-24T13:27:54.757Z,9.83
2018-01-24T13:30:23.206Z,9.23
2018-01-24T13:32:51.641Z,12.17
2018-01-24T13:35:20.093Z,9.33
2018-01-24T13:37:48.544Z,8.77
2018-01-24T13:40:16.987Z,25.40
2018-01-24T13:42:45.432Z,9.37
2018-01-24T13:45:13.924Z,9.37
2018-01-24T13:47:42.356Z,9.50
2018-01-24T13:50:10.828Z,16.10
2018-01-24T13:52:39.272Z,13.20
2018-01-24T13:55:07.697Z,12.40
2018-01-24T13:57:36.129Z,14.87
2018-01-24T14:00:04.591Z,14.43
2018-01-24T14:02:33.078Z,26.60
2018-01-24T14:05:01.533Z,10.30
2018-01-24T14:07:29.940Z,8.87
2018-01-24T14:09:58.333Z,8.33
2018-01-24T14:12:26.769Z,8.90
2018-01-24T14:14:55.197Z,8.70
2018-01-24T14:17:23.640Z,8.37
2018-01-24T14:19:52.033Z,8.70
2018-01-24T14:22:20.485Z,8.97
2018-01-24T14:24:48.941Z,8.70
2018-01-24T14:27:17.387Z,9.07
2018-01-24T14:29:45.853Z,8.37
2018-01-24T14:32:14.250Z,8.03
2018-01-24T14:34:43.931Z,7.07
2018-01-24T14:37:12.376Z,10.50
2018-01-24T14:39:40.825Z,25.60
2018-01-24T14:42:09.230Z,14.00
2018-01-24T14:44:37.669Z,14.60
2018-01-24T14:47:06.102Z,10.20
2018-01-24T14:49:34.540Z,9.67
2018-01-24T14:52:02.954Z,9.40
2018-01-24T14:54:31.401Z,10.20
2018-01-24T14:56:59.809Z,10.00
2018-01-24T14:59:28.205Z,10.43
2018-01-24T15:01:56.717Z,16.83
2018-01-24T15:04:25.141Z,10.17
2018-01-24T15:06:53.614Z,10.57
2018-01-24T15:09:22.041Z,10.43
2018-01-24T15:11:50.604Z,11.30
2018-01-24T15:14:19.058Z,12.53
2018-01-24T15:16:47.469Z,13.53
2018-01-24T15:19:15.921Z,32.17
2018-01-24T15:21:44.393Z,12.53
2018-01-24T15:24:13.584Z,11.97
2018-01-24T15:26:41.984Z,12.70
2018-01-24T15:29:10.417Z,12.23
2018-01-24T15:31:38.816Z,13.67
2018-01-24T15:34:07.355Z,14.93
2018-01-24T15:36:35.765Z,13.87
2018-01-24T15:39:04.318Z,13.40
2018-01-24T15:41:32.819Z,13.93
2018-01-24T15:44:01.258Z,12.27
2018-01-24T15:46:29.708Z,13.03
2018-01-24T15:48:58.173Z,13.33
2018-01-24T15:51:26.637Z,13.67
2018-01-24T15:53:55.105Z,13.40
2018-01-24T15:56:23.613Z,12.50
2018-01-24T15:58:52.076Z,15.70
2018-01-24T16:01:20.512Z,14.13
2018-01-24T16:03:48.958Z,13.80
2018-01-24T16:06:17.387Z,13.17
2018-01-24T16:08:45.906Z,13.70
2018-01-24T16:11:14.365Z,13.73
2018-01-24T16:13:42.776Z,16.40
2018-01-24T16:16:11.262Z,14.57
2018-01-24T16:18:39.673Z,18.90
2018-01-24T16:21:08.158Z,16.53
2018-01-24T16:23:36.601Z,11.93
2018-01-24T16:26:05.048Z,11.63
2018-01-24T16:28:33.453Z,9.53
2018-01-24T16:31:01.888Z,8.97
2018-01-24T16:33:30.351Z,7.60
2018-01-24T16:35:58.835Z,9.23
2018-01-24T16:38:27.337Z,46.60
2018-01-24T16:40:55.846Z,55.07
2018-01-24T16:43:24.258Z,50.50
2018-01-24T16:45:52.700Z,22.27
2018-01-24T16:48:21.173Z,16.77
2018-01-24T16:50:49.736Z,14.57
2018-01-24T16:53:18.194Z,8.60
2018-01-24T16:55:46.684Z,8.10
2018-01-24T16:58:15.155Z,8.20
2018-01-24T17:00:43.584Z,9.50
2018-01-24T17:03:12.029Z,9.17
2018-01-24T17:05:40.490Z,9.90
2018-01-24T17:08:08.946Z,8.87
2018-01-24T17:10:37.466Z,9.07
2018-01-24T17:13:05.887Z,9.87
2018-01-24T17:15:34.396Z,9.63
2018-01-24T17:18:02.825Z,9.13
2018-01-24T17:20:31.268Z,8.43
2018-01-24T17:22:59.665Z,7.37
2018-01-24T17:25:28.061Z,7.00
2018-01-24T17:27:56.498Z,6.33
2018-01-24T17:30:24.908Z,5.70
2018-01-24T17:32:53.425Z,4.90
2018-01-24T17:35:22.505Z,5.70
2018-01-24T17:37:50.997Z,5.10
2018-01-24T17:40:19.493Z,5.83
2018-01-24T17:42:47.949Z,5.70
2018-01-24T17:45:16.392Z,5.43
2018-01-24T17:47:44.845Z,5.27
2018-01-24T17:50:13.298Z,5.37
2018-01-24T17:52:41.746Z,5.37
2018-01-24T17:55:10.232Z,5.30
2018-01-24T17:57:38.687Z,5.30
2018-01-24T18:00:07.174Z,5.65
2018-01-24T18:02:35.697Z,5.80
2018-01-24T18:05:04.159Z,5.63
2018-01-24T18:07:32.561Z,5.87
2018-01-24T18:10:01.126Z,5.70
2018-01-24T18:12:29.533Z,6.03
2018-01-24T18:14:57.945Z,6.40
2018-01-24T18:17:26.428Z,5.83
2018-01-24T18:19:54.865Z,5.67
2018-01-24T18:22:23.318Z,5.77
2018-01-24T18:24:51.809Z,5.53
2018-01-24T18:27:20.253Z,6.75
2018-01-24T18:29:48.749Z,7.55
2018-01-24T18:32:17.172Z,8.27
2018-01-24T18:34:45.634Z,9.40
2018-01-24T18:37:14.159Z,8.75
2018-01-24T18:39:42.577Z,10.07
2018-01-24T18:42:10.986Z,12.27
2018-01-24T18:44:39.452Z,12.85
2018-01-24T18:47:07.957Z,12.50
2018-01-24T18:49:36.404Z,13.45
2018-01-24T18:52:04.829Z,13.75
2018-01-24T18:54:33.306Z,13.90
2018-01-24T18:57:01.738Z,13.48
2018-01-24T18:59:30.210Z,14.63
2018-01-24T19:01:58.721Z,16.08
2018-01-24T19:04:27.197Z,15.07
2018-01-24T19:06:55.693Z,15.35
2018-01-24T19:09:24.118Z,16.48
2018-01-24T19:11:52.629Z,16.67
2018-01-24T19:14:21.032Z,18.50
2018-01-24T19:16:49.500Z,14.90
2018-01-24T19:19:17.908Z,11.65
2018-01-24T19:21:46.380Z,10.82
2018-01-24T19:24:14.824Z,10.67
2018-01-24T19:26:43.243Z,9.67
2018-01-24T19:29:11.761Z,8.05
2018-01-24T19:31:40.239Z,8.18
2018-01-24T19:34:08.669Z,7.90
2018-01-24T19:36:37.101Z,6.85
2018-01-24T19:39:05.580Z,8.73
2018-01-24T19:41:33.998Z,8.13
2018-01-24T19:44:02.473Z,9.25
2018-01-24T19:46:31.006Z,10.27
2018-01-24T19:48:59.485Z,10.00
2018-01-24T19:51:27.932Z,11.88
2018-01-24T19:53:56.323Z,11.52
2018-01-24T19:56:24.874Z,12.27
2018-01-24T19:58:53.378Z,12.10
2018-01-24T20:01:21.793Z,12.05
2018-01-24T20:03:50.242Z,11.38
2018-01-24T20:06:18.716Z,11.27
2018-01-24T20:08:47.181Z,11.32
2018-01-24T20:11:15.579Z,11.55
2018-01-24T20:13:44.032Z,11.32
2018-01-24T20:16:12.459Z,10.40
2018-01-24T20:18:40.886Z,12.02
2018-01-24T20:21:09.300Z,17.00
2018-01-24T20:23:37.813Z,17.77
2018-01-24T20:26:06.313Z,17.45
2018-01-24T20:28:34.835Z,16.40
2018-01-24T20:31:03.248Z,13.70
2018-01-24T20:33:31.702Z,12.85
2018-01-24T20:36:00.206Z,11.38
2018-01-24T20:38:28.706Z,9.32
2018-01-24T20:40:57.143Z,9.10
2018-01-24T20:43:25.637Z,10.10
2018-01-24T20:45:54.141Z,12.23
2018-01-24T20:48:22.616Z,13.02
2018-01-24T20:50:51.016Z,12.75
2018-01-24T20:53:19.473Z,14.35
2018-01-24T20:55:47.961Z,17.17
2018-01-24T20:58:16.410Z,19.52
2018-01-24T21:00:44.862Z,17.62
2018-01-24T21:03:13.370Z,14.38
2018-01-24T21:05:41.802Z,11.65
2018-01-24T21:08:10.263Z,8.23
2018-01-24T21:10:38.716Z,7.18
2018-01-24T21:13:07.125Z,6.68
2018-01-24T21:15:35.565Z,7.00
2018-01-24T21:18:04.052Z,6.10
2018-01-24T21:20:32.461Z,6.40
2018-01-24T21:23:00.889Z,7.43
2018-01-24T21:25:29.296Z,6.12
2018-01-24T21:27:57.744Z,6.57
2018-01-24T21:30:26.362Z,6.25
2018-01-24T21:33:06.529Z,6.82
2018-01-24T21:35:46.753Z,7.22
2018-01-24T21:38:15.250Z,8.45
2018-01-24T21:40:43.786Z,7.22
2018-01-24T21:43:12.264Z,7.30
2018-01-24T21:45:40.766Z,7.20
2018-01-24T21:48:09.219Z,6.78
2018-01-24T21:50:37.729Z,6.85
2018-01-24T21:53:06.134Z,7.15
2018-01-24T21:55:34.554Z,6.90
2018-01-24T21:58:02.997Z,9.80
2018-01-24T22:00:31.457Z,8.77
2018-01-24T22:02:59.985Z,8.35
2018-01-24T22:05:28.385Z,6.60
2018-01-24T22:07:56.840Z,8.77
2018-01-24T22:10:25.301Z,8.98
2018-01-24T22:12:53.706Z,8.40
2018-01-24T22:15:22.149Z,9.10
2018-01-24T22:17:50.609Z,8.52
2018-01-24T22:20:19.047Z,8.80
2018-01-24T22:22:47.496Z,8.02
2018-01-24T22:25:15.914Z,8.13
2018-01-24T22:27:44.377Z,8.02
2018-01-24T22:30:12.909Z,8.18
2018-01-24T22:32:41.348Z,7.18
2018-01-24T22:35:09.806Z,8.05
2018-01-24T22:37:38.272Z,7.40
2018-01-24T22:40:06.769Z,8.00
2018-01-24T22:42:35.227Z,7.35
2018-01-24T22:45:03.739Z,7.35
2018-01-24T22:47:32.136Z,7.68
2018-01-24T22:50:00.577Z,7.28
2018-01-24T22:52:29.007Z,7.85
2018-01-24T22:54:57.508Z,7.70
2018-01-24T22:57:25.918Z,8.13
2018-01-24T22:59:54.374Z,7.93
2018-01-24T23:02:22.781Z,7.80
2018-01-24T23:04:51.304Z,8.00
2018-01-24T23:07:19.700Z,7.03
2018-01-24T23:09:48.117Z,7.07
2018-01-24T23:12:16.628Z,7.82
2018-01-24T23:14:45.105Z,7.62
2018-01-24T23:17:13.561Z,7.43
2018-01-24T23:19:42.013Z,7.35
2018-01-24T23:22:10.460Z,7.70
2018-01-24T23:24:38.874Z,7.85
2018-01-24T23:27:07.333Z,8.10
2018-01-24T23:29:35.754Z,8.07
2018-01-24T23:32:04.204Z,7.60
2018-01-24T23:34:32.707Z,8.75
2018-01-24T23:37:01.105Z,8.23
2018-01-24T23:39:29.593Z,8.65
2018-01-24T23:41:58.123Z,8.40
2018-01-24T23:44:26.564Z,8.90
2018-01-24T23:46:55.106Z,10.07
2018-01-24T23:49:23.529Z,9.20
2018-01-24T23:51:51.997Z,10.10
2018-01-24T23:54:20.469Z,9.68
2018-01-24T23:56:48.940Z,10.30
2018-01-24T23:59:17.400Z,9.52
